Time;durP1;ratioP1;P1;durP2;ratioP2;P2;SDS_P1;SDS_P2;PMS_P1;PMS_P2;Temp;Humidity;BMP_temperature;BMP_pressure;BME280_temperature;BME280_humidity;BME280_pressure;Samples;Min_cycle;Max_cycle;Signal;HPM_P1;HPM_P2
2023/08/30 00:00:48;;;;;;;12.00;11.10;;;;;;;;;;5075048;28;20391;-81
2023/08/30 00:03:14;;;;;;;12.35;11.40;;;;;;;;;;5075135;28;20372;-81
2023/08/30 00:05:40;;;;;;;13.77;12.68;;;;;;;;;;5075116;28;20419;-81
2023/08/30 00:08:07;;;;;;;12.17;11.17;;;;;;;;;;5066510;28;20401;-81
2023/08/30 00:10:33;;;;;;;11.93;11.02;;;;;;;;;;5063041;28;20381;-81
2023/08/30 00:12:59;;;;;;;12.27;11.38;;;;;;;;;;5067817;28;20389;-80
2023/08/30 00:15:25;;;;;;;11.13;10.30;;;;;;;;;;5071791;28;20380;-81
2023/08/30 00:17:51;;;;;;;11.30;10.45;;;;;;;;;;5071473;28;20898;-81
2023/08/30 00:20:18;;;;;;;11.18;10.27;;;;;;;;;;5066301;28;20386;-82
2023/08/30 00:22:44;;;;;;;10.20;9.40;;;;;;;;;;5069706;28;20500;-82
2023/08/30 00:25:10;;;;;;;11.10;10.20;;;;;;;;;;5073168;28;20442;-82
2023/08/30 00:27:36;;;;;;;11.35;10.45;;;;;;;;;;5073017;28;20783;-82
2023/08/30 00:30:02;;;;;;;11.85;10.90;;;;;;;;;;5073785;28;20390;-82
2023/08/30 00:32:28;;;;;;;11.38;10.38;;;;;;;;;;5073850;28;20379;-82
2023/08/30 00:34:54;;;;;;;10.52;9.73;;;;;;;;;;5074474;28;20418;-82
2023/08/30 00:37:20;;;;;;;10.52;9.73;;;;;;;;;;5074286;28;20399;-82
2023/08/30 00:39:45;;;;;;;10.10;9.40;;;;;;;;;;5055979;28;20764;-82
2023/08/30 00:42:11;;;;;;;10.75;9.95;;;;;;;;;;5073497;28;20383;-82
2023/08/30 00:44:37;;;;;;;11.82;10.93;;;;;;;;;;5073347;28;20498;-83
2023/08/30 00:47:04;;;;;;;11.55;10.75;;;;;;;;;;5073193;28;20408;-82
2023/08/30 00:49:33;;;;;;;10.63;9.82;;;;;;;;;;5072264;28;20411;-82
2023/08/30 00:52:02;;;;;;;11.90;11.00;;;;;;;;;;5072538;28;20392;-82
2023/08/30 00:54:28;;;;;;;12.00;11.00;;;;;;;;;;5072744;28;20950;-82
2023/08/30 00:56:55;;;;;;;11.77;10.88;;;;;;;;;;5071835;28;20443;-82
2023/08/30 00:59:21;;;;;;;12.40;11.40;;;;;;;;;;5072413;28;20493;-82
2023/08/30 01:01:48;;;;;;;12.52;11.52;;;;;;;;;;5072402;28;20868;-82
2023/08/30 01:04:14;;;;;;;11.90;11.00;;;;;;;;;;5072295;28;20505;-82
2023/08/30 01:06:40;;;;;;;11.60;10.70;;;;;;;;;;5072723;28;20457;-82
2023/08/30 01:09:06;;;;;;;12.40;11.40;;;;;;;;;;5073714;28;20383;-82
2023/08/30 01:11:37;;;;;;;11.17;10.27;;;;;;;;;;5073645;28;20372;-82
2023/08/30 01:14:08;;;;;;;11.23;10.32;;;;;;;;;;5073578;28;20880;-82
2023/08/30 01:16:35;;;;;;;10.57;9.77;;;;;;;;;;5072077;28;20388;-82
2023/08/30 01:19:05;;;;;;;11.20;10.30;;;;;;;;;;5072888;28;20378;-82
2023/08/30 01:21:49;;;;;;;10.90;10.10;;;;;;;;;;5072929;28;20451;-82
2023/08/30 01:24:17;;;;;;;11.00;10.20;;;;;;;;;;5072912;28;20420;-82
2023/08/30 01:26:50;;;;;;;10.93;10.02;;;;;;;;;;5073488;28;20383;-82
2023/08/30 01:29:17;;;;;;;10.77;9.88;;;;;;;;;;5073423;28;20382;-82
2023/08/30 01:31:44;;;;;;;10.93;9.93;;;;;;;;;;5073150;28;20395;-82
2023/08/30 01:34:10;;;;;;;11.13;10.23;;;;;;;;;;5073245;28;20441;-82
2023/08/30 01:36:36;;;;;;;11.30;10.50;;;;;;;;;;5072664;28;20387;-82
2023/08/30 01:39:04;;;;;;;12.13;11.23;;;;;;;;;;5073281;28;20864;-82
2023/08/30 01:41:31;;;;;;;11.82;10.90;;;;;;;;;;5073073;28;20440;-82
2023/08/30 01:43:59;;;;;;;12.73;11.73;;;;;;;;;;5072251;28;20764;-82
2023/08/30 01:46:25;;;;;;;14.50;12.95;;;;;;;;;;5073058;28;20462;-82
2023/08/30 01:48:51;;;;;;;13.93;12.80;;;;;;;;;;5069537;28;20437;-82
2023/08/30 01:51:17;;;;;;;14.30;13.07;;;;;;;;;;5052088;28;20396;-82
2023/08/30 01:53:45;;;;;;;13.65;12.60;;;;;;;;;;5053427;28;20834;-82
2023/08/30 01:56:11;;;;;;;13.30;12.30;;;;;;;;;;5071561;28;20843;-82
2023/08/30 01:58:37;;;;;;;13.02;11.93;;;;;;;;;;5072667;28;20389;-82
2023/08/30 02:01:03;;;;;;;12.13;11.23;;;;;;;;;;5072509;28;20736;-82
2023/08/30 02:03:29;;;;;;;12.47;11.47;;;;;;;;;;5067861;28;20418;-82
2023/08/30 02:06:02;;;;;;;12.10;11.20;;;;;;;;;;5073126;28;20864;-82
2023/08/30 02:08:35;;;;;;;12.50;11.50;;;;;;;;;;5069996;28;20467;-82
2023/08/30 02:11:02;;;;;;;11.88;10.88;;;;;;;;;;5069343;28;20376;-82
2023/08/30 02:13:30;;;;;;;11.73;10.93;;;;;;;;;;5072145;28;20473;-82
2023/08/30 02:15:57;;;;;;;11.25;10.35;;;;;;;;;;5072152;28;20396;-82
2023/08/30 02:18:24;;;;;;;11.98;11.07;;;;;;;;;;5072414;28;20772;-82
2023/08/30 02:20:50;;;;;;;12.27;11.30;;;;;;;;;;5072251;28;20391;-82
2023/08/30 02:23:16;;;;;;;12.30;11.30;;;;;;;;;;5071837;28;20382;-82
2023/08/30 02:25:42;;;;;;;11.47;10.67;;;;;;;;;;5071695;28;20398;-82
2023/08/30 02:28:09;;;;;;;11.73;10.82;;;;;;;;;;5071423;28;20404;-82
2023/08/30 02:30:35;;;;;;;10.55;9.75;;;;;;;;;;5053747;28;20388;-82
2023/08/30 02:33:01;;;;;;;11.93;11.03;;;;;;;;;;5071826;28;20375;-82
2023/08/30 02:35:27;;;;;;;11.48;10.57;;;;;;;;;;5071534;28;20375;-82
2023/08/30 02:37:53;;;;;;;12.82;11.82;;;;;;;;;;5054343;28;20718;-82
2023/08/30 02:40:19;;;;;;;13.37;12.17;;;;;;;;;;5053873;28;20411;-82
2023/08/30 02:42:45;;;;;;;13.20;12.10;;;;;;;;;;5071618;28;20382;-82
2023/08/30 02:45:11;;;;;;;12.20;11.10;;;;;;;;;;5053839;28;20419;-82
2023/08/30 02:47:37;;;;;;;12.27;11.35;;;;;;;;;;5071233;28;20441;-82
2023/08/30 02:50:03;;;;;;;12.98;11.88;;;;;;;;;;5066716;28;20442;-82
2023/08/30 02:52:29;;;;;;;13.18;12.07;;;;;;;;;;5070345;28;20398;-82
2023/08/30 02:54:55;;;;;;;12.13;11.23;;;;;;;;;;5072072;28;20850;-82
2023/08/30 02:57:21;;;;;;;12.18;11.18;;;;;;;;;;5071982;28;20391;-82
2023/08/30 02:59:47;;;;;;;10.93;10.13;;;;;;;;;;5053646;28;20443;-82
2023/08/30 03:02:13;;;;;;;12.43;11.43;;;;;;;;;;5072092;28;20391;-82
2023/08/30 03:04:39;;;;;;;11.73;10.83;;;;;;;;;;5071545;28;20438;-82
2023/08/30 03:07:05;;;;;;;11.70;10.80;;;;;;;;;;5071627;28;20394;-82
2023/08/30 03:09:31;;;;;;;11.85;10.98;;;;;;;;;;5074448;28;20383;-82
2023/08/30 03:11:57;;;;;;;11.15;10.35;;;;;;;;;;5075013;28;20508;-82
2023/08/30 03:14:23;;;;;;;12.45;11.52;;;;;;;;;;5057004;28;20380;-82
2023/08/30 03:16:49;;;;;;;12.73;11.63;;;;;;;;;;5074895;28;20383;-82
2023/08/30 03:19:17;;;;;;;11.27;10.40;;;;;;;;;;5057284;28;20388;-82
2023/08/30 03:21:43;;;;;;;11.07;10.13;;;;;;;;;;5075187;28;20860;-82
2023/08/30 03:24:10;;;;;;;12.18;11.18;;;;;;;;;;5075348;28;20399;-82
2023/08/30 03:26:35;;;;;;;13.10;12.10;;;;;;;;;;5075244;28;20412;-82
2023/08/30 03:29:02;;;;;;;12.10;10.90;;;;;;;;;;5075442;28;20383;-82
2023/08/30 03:31:28;;;;;;;11.50;10.60;;;;;;;;;;5075623;28;20375;-82
2023/08/30 03:33:53;;;;;;;10.73;9.93;;;;;;;;;;5074696;28;20387;-82
2023/08/30 03:36:20;;;;;;;11.35;10.45;;;;;;;;;;5073773;28;20372;-82
2023/08/30 03:38:46;;;;;;;11.50;10.60;;;;;;;;;;5073433;28;20375;-82
2023/08/30 03:41:12;;;;;;;11.30;10.40;;;;;;;;;;5061789;28;20411;-82
2023/08/30 03:43:38;;;;;;;11.00;10.20;;;;;;;;;;5074480;28;20418;-82
2023/08/30 03:46:04;;;;;;;11.40;10.60;;;;;;;;;;5074980;28;20384;-82
2023/08/30 03:48:31;;;;;;;11.52;10.63;;;;;;;;;;5074730;28;20848;-82
2023/08/30 03:50:57;;;;;;;11.18;10.18;;;;;;;;;;5063166;28;20845;-82
2023/08/30 03:53:23;;;;;;;10.50;9.60;;;;;;;;;;5075021;28;20388;-82
2023/08/30 03:55:50;;;;;;;10.43;9.70;;;;;;;;;;5074617;28;20713;-82
2023/08/30 03:58:16;;;;;;;10.68;9.77;;;;;;;;;;5071998;28;20726;-82
2023/08/30 04:00:42;;;;;;;10.88;10.07;;;;;;;;;;5074931;28;20442;-82
2023/08/30 04:03:11;;;;;;;10.65;9.82;;;;;;;;;;5075052;28;20383;-82
2023/08/30 04:05:38;;;;;;;12.15;11.15;;;;;;;;;;5074330;28;20885;-82
2023/08/30 04:08:04;;;;;;;11.38;10.48;;;;;;;;;;5074726;28;20437;-82
2023/08/30 04:10:30;;;;;;;12.43;11.45;;;;;;;;;;5074472;28;20737;-82
2023/08/30 04:12:56;;;;;;;13.50;12.23;;;;;;;;;;5074603;28;20399;-82
2023/08/30 04:15:22;;;;;;;14.23;13.03;;;;;;;;;;5074664;28;20423;-82
2023/08/30 04:17:48;;;;;;;14.10;13.00;;;;;;;;;;5074342;28;20388;-82
2023/08/30 04:20:14;;;;;;;14.40;13.30;;;;;;;;;;5072992;28;20379;-82
2023/08/30 04:22:40;;;;;;;16.35;14.95;;;;;;;;;;5074414;28;20383;-82
2023/08/30 04:25:09;;;;;;;16.70;15.10;;;;;;;;;;5074366;28;20415;-82
2023/08/30 04:27:35;;;;;;;15.95;14.65;;;;;;;;;;5074961;28;20376;-82
2023/08/30 04:30:01;;;;;;;16.83;15.35;;;;;;;;;;5074681;28;20399;-82
2023/08/30 04:32:26;;;;;;;17.13;15.63;;;;;;;;;;5074259;28;20479;-82
2023/08/30 04:34:52;;;;;;;17.05;15.40;;;;;;;;;;5074068;28;20388;-82
2023/08/30 04:37:18;;;;;;;16.25;14.85;;;;;;;;;;5074052;28;20403;-82
2023/08/30 04:39:48;;;;;;;17.30;15.70;;;;;;;;;;5074223;28;20390;-82
2023/08/30 04:42:14;;;;;;;16.13;14.73;;;;;;;;;;5074409;28;20379;-82
2023/08/30 04:44:40;;;;;;;16.63;15.10;;;;;;;;;;5074256;28;20904;-82
2023/08/30 04:47:06;;;;;;;16.20;14.80;;;;;;;;;;5071663;28;20411;-82
2023/08/30 04:49:32;;;;;;;15.63;14.13;;;;;;;;;;5056164;28;20937;-82
2023/08/30 04:51:58;;;;;;;14.63;13.32;;;;;;;;;;5073765;28;20388;-82
2023/08/30 04:54:24;;;;;;;14.05;12.82;;;;;;;;;;5072769;28;20379;-82
2023/08/30 04:56:51;;;;;;;15.38;14.00;;;;;;;;;;5070921;28;20813;-82
2023/08/30 04:59:17;;;;;;;14.13;13.02;;;;;;;;;;5074234;28;20399;-83
2023/08/30 05:01:44;;;;;;;14.05;12.93;;;;;;;;;;5074170;28;20395;-83
2023/08/30 05:04:10;;;;;;;15.20;13.98;;;;;;;;;;5073884;28;20408;-83
2023/08/30 05:06:36;;;;;;;15.98;14.57;;;;;;;;;;5056339;28;20405;-83
2023/08/30 05:09:02;;;;;;;15.02;13.73;;;;;;;;;;5073819;28;20383;-82
2023/08/30 05:11:28;;;;;;;15.55;14.25;;;;;;;;;;5073464;28;20384;-82
2023/08/30 05:13:55;;;;;;;15.23;13.98;;;;;;;;;;5062729;28;20488;-82
2023/08/30 05:16:21;;;;;;;13.88;12.77;;;;;;;;;;5052969;28;20412;-82
2023/08/30 05:18:47;;;;;;;15.45;14.15;;;;;;;;;;5063292;28;20406;-82
2023/08/30 05:21:14;;;;;;;14.85;13.55;;;;;;;;;;5060907;28;20388;-82
2023/08/30 05:23:44;;;;;;;15.25;13.95;;;;;;;;;;5061453;28;20416;-82
2023/08/30 05:26:12;;;;;;;16.77;15.18;;;;;;;;;;5064398;28;20844;-82
2023/08/30 05:28:38;;;;;;;16.37;14.87;;;;;;;;;;5053012;28;20433;-82
2023/08/30 05:31:05;;;;;;;16.15;14.68;;;;;;;;;;5052222;28;20379;-82
2023/08/30 05:33:31;;;;;;;16.02;14.50;;;;;;;;;;5065613;28;20952;-82
2023/08/30 05:35:57;;;;;;;14.98;13.60;;;;;;;;;;5066730;28;20393;-82
2023/08/30 05:38:23;;;;;;;14.65;13.45;;;;;;;;;;5068207;28;20845;-82
2023/08/30 05:40:49;;;;;;;17.23;15.63;;;;;;;;;;5071831;28;20389;-82
2023/08/30 05:43:16;;;;;;;16.65;15.15;;;;;;;;;;5073634;28;20898;-82
2023/08/30 05:45:42;;;;;;;16.00;14.60;;;;;;;;;;5073752;28;20464;-82
2023/08/30 05:48:08;;;;;;;16.00;14.60;;;;;;;;;;5069034;28;20479;-82
2023/08/30 05:50:34;;;;;;;16.88;15.30;;;;;;;;;;5072552;28;20909;-83
2023/08/30 05:53:00;;;;;;;16.33;14.93;;;;;;;;;;5073630;28;20427;-83
2023/08/30 05:55:26;;;;;;;16.33;14.93;;;;;;;;;;5073370;28;20391;-83
2023/08/30 05:57:52;;;;;;;16.33;14.93;;;;;;;;;;5070433;28;20445;-83
2023/08/30 06:00:18;;;;;;;15.63;14.40;;;;;;;;;;5073052;28;20470;-83
2023/08/30 06:02:44;;;;;;;16.55;15.05;;;;;;;;;;5068306;28;20787;-83
2023/08/30 06:05:10;;;;;;;17.38;15.48;;;;;;;;;;5073255;28;20423;-83
2023/08/30 06:07:36;;;;;;;17.87;16.07;;;;;;;;;;5073388;28;20427;-84
2023/08/30 06:10:02;;;;;;;18.70;16.90;;;;;;;;;;5073088;28;20376;-84
2023/08/30 06:12:29;;;;;;;18.48;16.60;;;;;;;;;;5072888;28;20368;-83
2023/08/30 06:14:55;;;;;;;17.85;15.95;;;;;;;;;;5073320;28;20368;-83
2023/08/30 06:17:21;;;;;;;16.80;15.18;;;;;;;;;;5073099;28;20402;-84
2023/08/30 06:19:47;;;;;;;17.38;15.68;;;;;;;;;;5073816;28;20787;-84
2023/08/30 06:22:14;;;;;;;17.15;15.50;;;;;;;;;;5072521;28;20429;-83
2023/08/30 06:24:40;;;;;;;16.88;15.30;;;;;;;;;;5072733;28;20417;-83
2023/08/30 06:27:06;;;;;;;15.67;14.27;;;;;;;;;;5054506;28;20936;-82
2023/08/30 06:29:32;;;;;;;15.10;13.80;;;;;;;;;;5072457;28;20441;-83
2023/08/30 06:31:58;;;;;;;14.80;13.63;;;;;;;;;;5072507;28;20392;-82
2023/08/30 06:34:24;;;;;;;14.68;13.40;;;;;;;;;;5071601;28;20837;-82
2023/08/30 06:36:50;;;;;;;14.75;13.55;;;;;;;;;;5071678;28;20474;-82
2023/08/30 06:39:18;;;;;;;15.13;13.88;;;;;;;;;;5071597;28;20430;-82
2023/08/30 06:41:43;;;;;;;17.60;15.88;;;;;;;;;;5071914;28;20406;-82
2023/08/30 06:44:10;;;;;;;18.03;16.33;;;;;;;;;;5070702;28;20889;-82
2023/08/30 06:46:37;;;;;;;19.50;17.33;;;;;;;;;;5069249;28;20387;-82
2023/08/30 06:49:03;;;;;;;19.38;17.48;;;;;;;;;;5071086;28;20375;-82
2023/08/30 06:51:29;;;;;;;19.60;17.55;;;;;;;;;;5071954;28;20741;-83
2023/08/30 06:54:00;;;;;;;17.80;16.10;;;;;;;;;;5053518;28;20865;-82
2023/08/30 06:56:26;;;;;;;18.75;16.90;;;;;;;;;;5071824;28;20407;-82
2023/08/30 06:58:52;;;;;;;18.57;16.77;;;;;;;;;;5072369;28;20439;-82
2023/08/30 07:01:18;;;;;;;18.95;16.98;;;;;;;;;;5069296;28;20722;-82
2023/08/30 07:03:44;;;;;;;18.98;16.98;;;;;;;;;;5070510;28;20419;-82
2023/08/30 07:06:10;;;;;;;19.52;17.52;;;;;;;;;;5067928;28;20462;-85
2023/08/30 07:08:36;;;;;;;22.33;18.95;;;;;;;;;;5070693;28;20391;-85
2023/08/30 07:11:02;;;;;;;21.30;19.00;;;;;;;;;;5069606;28;20388;-85
2023/08/30 07:13:28;;;;;;;26.27;19.70;;;;;;;;;;5071600;28;20414;-85
2023/08/30 07:15:54;;;;;;;30.42;20.40;;;;;;;;;;5071478;28;20391;-85
2023/08/30 07:18:20;;;;;;;23.98;19.98;;;;;;;;;;5072616;28;20441;-85
2023/08/30 07:20:46;;;;;;;21.52;19.20;;;;;;;;;;5072861;28;20395;-85
2023/08/30 07:23:12;;;;;;;21.52;18.90;;;;;;;;;;5072947;28;20471;-85
2023/08/30 07:25:39;;;;;;;20.13;17.92;;;;;;;;;;5073179;28;20487;-85
2023/08/30 07:28:05;;;;;;;17.92;16.20;;;;;;;;;;5072784;28;20421;-85
2023/08/30 07:30:31;;;;;;;19.60;17.50;;;;;;;;;;5072847;28;20437;-85
2023/08/30 07:32:57;;;;;;;18.63;16.63;;;;;;;;;;5072913;28;20386;-85
2023/08/30 07:35:23;;;;;;;17.98;16.17;;;;;;;;;;5072859;28;20387;-85
2023/08/30 07:37:49;;;;;;;15.85;14.32;;;;;;;;;;5072840;28;20395;-85
2023/08/30 07:40:15;;;;;;;17.42;15.63;;;;;;;;;;5072119;28;20383;-85
2023/08/30 07:42:41;;;;;;;14.75;13.55;;;;;;;;;;5063750;28;20445;-85
2023/08/30 07:45:07;;;;;;;14.52;13.13;;;;;;;;;;5054765;28;20411;-85
2023/08/30 07:47:33;;;;;;;14.32;13.13;;;;;;;;;;5055641;28;20386;-85
2023/08/30 07:50:00;;;;;;;13.88;12.57;;;;;;;;;;5053322;28;20463;-85
2023/08/30 07:52:25;;;;;;;14.73;13.50;;;;;;;;;;5061305;28;20380;-85
2023/08/30 07:54:51;;;;;;;13.52;12.43;;;;;;;;;;5075747;28;20417;-85
2023/08/30 07:57:17;;;;;;;14.18;13.00;;;;;;;;;;5076937;28;20384;-85
2023/08/30 07:59:43;;;;;;;15.05;13.85;;;;;;;;;;5077397;28;20391;-85
2023/08/30 08:02:09;;;;;;;15.25;14.05;;;;;;;;;;5077688;28;20729;-85
2023/08/30 08:04:35;;;;;;;13.77;12.68;;;;;;;;;;5078844;28;20423;-85
2023/08/30 08:07:02;;;;;;;13.77;12.57;;;;;;;;;;5077626;28;20394;-85
2023/08/30 08:09:28;;;;;;;13.98;12.68;;;;;;;;;;5073912;28;20487;-85
2023/08/30 08:11:55;;;;;;;13.85;12.68;;;;;;;;;;5077057;28;20411;-85
2023/08/30 08:14:21;;;;;;;15.65;14.30;;;;;;;;;;5077257;28;20384;-85
2023/08/30 08:16:47;;;;;;;13.20;12.10;;;;;;;;;;5076591;28;20426;-84
2023/08/30 08:19:13;;;;;;;14.40;13.10;;;;;;;;;;5077041;28;20376;-85
2023/08/30 08:21:39;;;;;;;14.48;13.27;;;;;;;;;;5077513;28;20411;-85
2023/08/30 08:24:05;;;;;;;15.57;14.27;;;;;;;;;;5076407;28;20881;-85
2023/08/30 08:26:31;;;;;;;16.60;15.05;;;;;;;;;;5076071;28;20387;-85
2023/08/30 08:28:57;;;;;;;14.40;13.30;;;;;;;;;;5076948;28;20383;-85
2023/08/30 08:31:23;;;;;;;14.02;12.82;;;;;;;;;;5076900;28;20375;-85
2023/08/30 08:34:06;;;;;;;12.95;12.02;;;;;;;;;;5059098;28;20386;-85
2023/08/30 08:36:32;;;;;;;14.52;13.32;;;;;;;;;;5078099;28;20438;-85
2023/08/30 08:38:58;;;;;;;12.85;11.85;;;;;;;;;;5077994;28;20857;-85
2023/08/30 08:41:26;;;;;;;12.97;11.90;;;;;;;;;;5071409;28;20396;-84
2023/08/30 08:43:52;;;;;;;13.82;12.55;;;;;;;;;;5069263;28;20412;-85
2023/08/30 08:46:19;;;;;;;14.68;13.40;;;;;;;;;;5077951;28;20388;-85
2023/08/30 08:48:45;;;;;;;14.00;12.90;;;;;;;;;;5077125;28;20384;-84
2023/08/30 08:51:11;;;;;;;13.95;12.75;;;;;;;;;;5077491;28;20388;-84
2023/08/30 08:53:38;;;;;;;13.50;12.40;;;;;;;;;;5055476;28;20409;-85
2023/08/30 08:56:05;;;;;;;11.83;10.73;;;;;;;;;;5072682;28;20438;-85
2023/08/30 08:58:31;;;;;;;14.20;13.00;;;;;;;;;;5077918;28;20478;-85
2023/08/30 09:00:57;;;;;;;14.48;13.27;;;;;;;;;;5080029;28;20382;-85
2023/08/30 09:03:23;;;;;;;13.18;12.18;;;;;;;;;;5081786;28;20455;-84
2023/08/30 09:05:49;;;;;;;11.45;10.60;;;;;;;;;;5076330;28;20448;-85
2023/08/30 09:08:16;;;;;;;10.60;9.80;;;;;;;;;;5077667;28;20460;-85
2023/08/30 09:10:43;;;;;;;11.55;10.73;;;;;;;;;;5078136;28;20388;-85
2023/08/30 09:13:09;;;;;;;10.60;9.80;;;;;;;;;;5076763;28;20384;-80
2023/08/30 09:15:38;;;;;;;8.60;7.85;;;;;;;;;;5070853;28;20399;-80
2023/08/30 09:18:04;;;;;;;8.60;8.00;;;;;;;;;;5071786;28;20390;-80
2023/08/30 09:20:30;;;;;;;9.20;8.50;;;;;;;;;;5076886;28;20443;-80
2023/08/30 09:22:56;;;;;;;7.82;7.28;;;;;;;;;;5076579;28;20419;-81
2023/08/30 09:25:26;;;;;;;8.73;8.00;;;;;;;;;;5072175;28;20403;-80
2023/08/30 09:27:52;;;;;;;7.70;7.10;;;;;;;;;;5074613;28;20698;-80
2023/08/30 09:30:24;;;;;;;8.27;7.75;;;;;;;;;;5064275;28;20858;-80
2023/08/30 09:32:50;;;;;;;7.65;7.15;;;;;;;;;;5079129;28;20383;-81
2023/08/30 09:35:16;;;;;;;7.72;7.22;;;;;;;;;;5076153;28;20386;-80
2023/08/30 09:37:45;;;;;;;6.93;6.43;;;;;;;;;;5081455;28;20372;-80
2023/08/30 09:40:11;;;;;;;8.30;7.70;;;;;;;;;;5072053;28;20380;-81
2023/08/30 09:42:43;;;;;;;7.78;7.18;;;;;;;;;;5074145;28;20887;-80
2023/08/30 09:45:24;;;;;;;7.40;6.80;;;;;;;;;;5078227;28;20459;-80
2023/08/30 09:47:50;;;;;;;8.45;7.85;;;;;;;;;;5076401;28;20435;-81
2023/08/30 09:50:20;;;;;;;6.97;6.38;;;;;;;;;;5070577;28;20382;-81
2023/08/30 09:52:50;;;;;;;8.95;8.15;;;;;;;;;;5073101;28;20869;-80
2023/08/30 09:55:18;;;;;;;8.23;7.63;;;;;;;;;;5075310;28;20691;-80
2023/08/30 09:57:44;;;;;;;7.43;6.93;;;;;;;;;;5074088;28;20449;-80
2023/08/30 10:00:14;;;;;;;7.05;6.55;;;;;;;;;;5066358;28;20380;-80
2023/08/30 10:02:44;;;;;;;6.60;6.10;;;;;;;;;;5073964;28;20464;-80
2023/08/30 10:05:13;;;;;;;7.23;6.73;;;;;;;;;;5073823;28;20404;-80
2023/08/30 10:07:43;;;;;;;7.28;6.68;;;;;;;;;;5069542;28;20399;-80
2023/08/30 10:10:10;;;;;;;7.23;6.73;;;;;;;;;;5073977;28;20891;-80
2023/08/30 10:12:36;;;;;;;7.78;7.20;;;;;;;;;;5073592;28;20456;-80
2023/08/30 10:15:03;;;;;;;6.72;6.22;;;;;;;;;;5074084;28;20760;-80
2023/08/30 10:17:31;;;;;;;6.38;5.88;;;;;;;;;;5072884;28;20387;-80
2023/08/30 10:19:57;;;;;;;6.65;6.15;;;;;;;;;;5073314;28;20384;-80
2023/08/30 10:22:24;;;;;;;6.53;6.03;;;;;;;;;;5073746;28;20376;-80
2023/08/30 10:24:55;;;;;;;5.07;4.68;;;;;;;;;;5073470;28;20427;-80
2023/08/30 10:27:22;;;;;;;4.15;3.85;;;;;;;;;;5073556;28;20474;-80
2023/08/30 10:29:49;;;;;;;4.95;4.57;;;;;;;;;;5071504;28;20488;-80
2023/08/30 10:32:20;;;;;;;4.72;4.43;;;;;;;;;;5072436;28;20879;-80
2023/08/30 10:34:48;;;;;;;4.55;4.15;;;;;;;;;;5073039;28;20380;-80
2023/08/30 10:37:14;;;;;;;4.72;4.43;;;;;;;;;;5071623;28;20387;-80
2023/08/30 10:39:41;;;;;;;4.57;4.28;;;;;;;;;;5073568;28;20434;-80
2023/08/30 10:42:11;;;;;;;4.38;3.97;;;;;;;;;;5073468;28;20388;-80
2023/08/30 10:44:49;;;;;;;4.97;4.50;;;;;;;;;;5060021;28;20514;-80
2023/08/30 10:47:26;;;;;;;4.20;3.90;;;;;;;;;;5070301;28;20372;-80
2023/08/30 10:49:55;;;;;;;3.60;3.30;;;;;;;;;;5061640;28;20431;-80
2023/08/30 10:52:21;;;;;;;3.77;3.53;;;;;;;;;;5073382;28;20383;-80
2023/08/30 10:54:47;;;;;;;3.50;3.30;;;;;;;;;;5073447;28;20772;-81
2023/08/30 10:57:14;;;;;;;3.15;2.95;;;;;;;;;;5073644;28;20388;-81
2023/08/30 10:59:40;;;;;;;3.80;3.07;;;;;;;;;;5073407;28;20744;-81
2023/08/30 11:02:07;;;;;;;3.63;3.33;;;;;;;;;;5073043;28;20383;-81
2023/08/30 11:04:33;;;;;;;3.20;3.00;;;;;;;;;;5072308;28;20958;-81
2023/08/30 11:06:59;;;;;;;3.25;2.95;;;;;;;;;;5072714;28;20829;-81
2023/08/30 11:09:26;;;;;;;2.95;2.72;;;;;;;;;;5072680;28;20383;-80
2023/08/30 11:11:52;;;;;;;2.97;2.77;;;;;;;;;;5073082;28;20430;-81
2023/08/30 11:14:19;;;;;;;3.60;3.30;;;;;;;;;;5072962;28;20387;-81
2023/08/30 11:16:45;;;;;;;4.45;3.25;;;;;;;;;;5073016;28;20429;-81
2023/08/30 11:19:12;;;;;;;2.75;2.55;;;;;;;;;;5073160;28;20383;-81
2023/08/30 11:21:39;;;;;;;2.35;2.22;;;;;;;;;;5073271;28;20419;-81
2023/08/30 11:24:05;;;;;;;2.67;2.40;;;;;;;;;;5072766;28;20414;-81
2023/08/30 11:26:31;;;;;;;2.55;2.35;;;;;;;;;;5073085;28;20395;-80
2023/08/30 11:28:57;;;;;;;2.60;2.40;;;;;;;;;;5073345;28;20376;-81
2023/08/30 11:31:29;;;;;;;2.40;2.20;;;;;;;;;;5076173;28;20384;-81
2023/08/30 11:33:56;;;;;;;2.67;2.13;;;;;;;;;;5076330;28;20383;-81
2023/08/30 11:36:23;;;;;;;2.53;2.27;;;;;;;;;;5075956;28;20474;-80
2023/08/30 11:38:52;;;;;;;2.75;2.55;;;;;;;;;;5076079;28;20939;-81
2023/08/30 11:41:20;;;;;;;3.05;2.75;;;;;;;;;;5076276;28;20387;-80
2023/08/30 11:43:47;;;;;;;2.40;2.20;;;;;;;;;;5075966;28;20732;-80
2023/08/30 11:46:13;;;;;;;2.65;2.30;;;;;;;;;;5075059;28;20399;-80
2023/08/30 11:48:40;;;;;;;2.70;2.50;;;;;;;;;;5075501;28;20726;-80
2023/08/30 11:51:07;;;;;;;2.67;2.47;;;;;;;;;;5075792;28;20845;-80
2023/08/30 11:53:33;;;;;;;2.85;2.20;;;;;;;;;;5075180;28;20402;-80
2023/08/30 11:55:59;;;;;;;2.33;2.13;;;;;;;;;;5071752;28;20401;-80
2023/08/30 11:58:25;;;;;;;2.03;1.87;;;;;;;;;;5076082;28;20447;-80
2023/08/30 12:00:53;;;;;;;2.10;2.00;;;;;;;;;;5076299;28;20380;-80
2023/08/30 12:03:20;;;;;;;1.83;1.73;;;;;;;;;;5075944;28;20444;-80
2023/08/30 12:05:46;;;;;;;2.58;2.03;;;;;;;;;;5075137;28;20970;-80
2023/08/30 12:08:19;;;;;;;2.20;2.00;;;;;;;;;;5057666;28;20392;-80
2023/08/30 12:10:46;;;;;;;1.85;1.75;;;;;;;;;;5075776;28;20383;-80
2023/08/30 12:13:25;;;;;;;1.50;1.40;;;;;;;;;;5075610;28;20439;-80
2023/08/30 12:15:51;;;;;;;2.00;1.55;;;;;;;;;;5076043;28;20391;-80
2023/08/30 12:18:17;;;;;;;1.80;1.70;;;;;;;;;;5075256;28;20388;-80
2023/08/30 12:20:56;;;;;;;1.85;1.70;;;;;;;;;;5074865;28;20746;-80
2023/08/30 12:23:23;;;;;;;2.30;1.47;;;;;;;;;;5075331;28;20380;-80
2023/08/30 12:26:05;;;;;;;1.88;1.77;;;;;;;;;;5075148;28;20438;-80
2023/08/30 12:28:32;;;;;;;2.10;1.90;;;;;;;;;;5072660;28;20383;-80
2023/08/30 12:30:58;;;;;;;1.90;1.80;;;;;;;;;;5061963;28;20386;-80
2023/08/30 12:33:28;;;;;;;1.85;1.75;;;;;;;;;;5074897;28;20449;-80
2023/08/30 12:35:54;;;;;;;1.63;1.52;;;;;;;;;;5075310;28;20379;-80
2023/08/30 12:38:20;;;;;;;2.13;1.67;;;;;;;;;;5074895;28;20388;-80
2023/08/30 12:40:47;;;;;;;2.03;1.88;;;;;;;;;;5073757;28;20442;-80
2023/08/30 12:43:14;;;;;;;1.83;1.73;;;;;;;;;;5067136;28;20380;-80
2023/08/30 12:45:40;;;;;;;2.03;1.67;;;;;;;;;;5074429;28;20730;-82
2023/08/30 12:48:07;;;;;;;2.43;1.73;;;;;;;;;;5074680;28;20468;-81
2023/08/30 12:50:33;;;;;;;2.40;1.80;;;;;;;;;;5073916;28;20415;-80
2023/08/30 12:52:59;;;;;;;2.47;1.67;;;;;;;;;;5073809;28;20997;-81
2023/08/30 12:55:25;;;;;;;1.85;1.75;;;;;;;;;;5072239;28;20539;-81
2023/08/30 12:57:51;;;;;;;1.63;1.52;;;;;;;;;;5072460;28;20386;-81
2023/08/30 13:00:17;;;;;;;2.00;1.80;;;;;;;;;;5073957;28;20380;-80
2023/08/30 13:02:43;;;;;;;1.85;1.75;;;;;;;;;;5076084;28;20898;-81
2023/08/30 13:05:09;;;;;;;1.88;1.67;;;;;;;;;;5074093;28;20500;-81
2023/08/30 13:07:35;;;;;;;2.08;1.67;;;;;;;;;;5074330;28;20395;-81
2023/08/30 13:10:01;;;;;;;1.67;1.57;;;;;;;;;;5074958;28;20478;-81
2023/08/30 13:12:27;;;;;;;1.67;1.58;;;;;;;;;;5073993;28;20388;-81
2023/08/30 13:14:53;;;;;;;2.45;1.80;;;;;;;;;;5074526;28;20383;-81
2023/08/30 13:17:19;;;;;;;1.80;1.70;;;;;;;;;;5074092;28;20402;-80
2023/08/30 13:19:45;;;;;;;3.00;1.60;;;;;;;;;;5073746;28;20372;-80
2023/08/30 13:22:11;;;;;;;1.70;1.60;;;;;;;;;;5073850;28;20372;-81
2023/08/30 13:24:37;;;;;;;1.67;1.58;;;;;;;;;;5074242;28;20408;-81
2023/08/30 13:27:04;;;;;;;1.83;1.73;;;;;;;;;;5074423;28;20396;-81
2023/08/30 13:29:30;;;;;;;1.55;1.45;;;;;;;;;;5062894;28;20380;-81
2023/08/30 13:31:56;;;;;;;1.67;1.45;;;;;;;;;;5074294;28;20396;-81
2023/08/30 13:34:22;;;;;;;1.70;1.60;;;;;;;;;;5074724;28;20383;-81
2023/08/30 13:36:48;;;;;;;1.48;1.38;;;;;;;;;;5098957;22;21500;-85
2023/08/30 13:39:14;;;;;;;1.48;1.38;;;;;;;;;;5076755;28;20398;-86
2023/08/30 13:41:40;;;;;;;1.40;1.27;;;;;;;;;;5067583;28;20394;-87
2023/08/30 13:44:07;;;;;;;1.88;1.70;;;;;;;;;;5057295;28;20417;-86
2023/08/30 13:46:33;;;;;;;2.40;1.40;;;;;;;;;;5057539;28;20381;-85
2023/08/30 13:48:59;;;;;;;1.55;1.15;;;;;;;;;;5040306;28;20404;-85
2023/08/30 13:51:26;;;;;;;1.47;1.27;;;;;;;;;;5058216;28;20396;-85
2023/08/30 13:53:53;;;;;;;1.67;1.37;;;;;;;;;;5056170;28;20424;-87
2023/08/30 13:56:19;;;;;;;1.60;1.45;;;;;;;;;;5053417;28;20385;-85
2023/08/30 13:58:45;;;;;;;1.65;1.55;;;;;;;;;;5057928;28;20389;-85
2023/08/30 14:01:12;;;;;;;1.60;1.50;;;;;;;;;;5038397;28;20736;-87
2023/08/30 14:03:38;;;;;;;1.90;1.42;;;;;;;;;;5032437;28;20731;-87
2023/08/30 14:06:04;;;;;;;1.50;1.40;;;;;;;;;;5041285;28;20892;-87
2023/08/30 14:08:31;;;;;;;1.77;1.40;;;;;;;;;;5057309;28;20453;-86
2023/08/30 14:10:57;;;;;;;1.70;1.60;;;;;;;;;;5045904;28;20415;-86
2023/08/30 14:13:23;;;;;;;1.60;1.40;;;;;;;;;;5025484;28;20981;-86
2023/08/30 14:15:49;;;;;;;1.40;1.30;;;;;;;;;;5056704;28;20462;-86
2023/08/30 14:18:16;;;;;;;1.30;1.20;;;;;;;;;;5039484;28;20926;-86
2023/08/30 14:20:42;;;;;;;1.70;1.60;;;;;;;;;;5040064;28;20452;-84
2023/08/30 14:23:08;;;;;;;1.70;1.13;;;;;;;;;;5058292;28;20480;-86